Pittsburgh, Pennsylvania
Current Conditions -  °F | °C
As of 12:53 PM on Friday 31 Oct 2014 (Local Time) from KAGC Reporting Station
Light Rain Light Rain  
Wind Chill: 42°   Ceiling: 3400
Heat Index: 46°   Visibility: 10mi
Dew Point: 33°   Wind: 7mph
Humidity: 61%   Direction: 260°W
Pressure: 29.89"   Gusts: NA
Location:  40.44°N, 80°W
Report Text: KAGC 311653Z 26006KT 10SM -RA BKN034 OVC044 08/01 A2989 RMK AO2 RAB10E29B46 SLP131 P0000 T00780006
Loading
Personal Weather Stations






























Interactive Weather Map
Tropical Storm Tracking
New forecast layout! Learn more

10-Day Weather Forecast

Advertisements
Track Severe Weather on mobile